Time;durP1;ratioP1;P1;durP2;ratioP2;P2;SDS_P1;SDS_P2;PMS_P1;PMS_P2;Temp;Humidity;BMP_temperature;BMP_pressure;BME280_temperature;BME280_humidity;BME280_pressure;Samples;Min_cycle;Max_cycle;Signal;HPM_P1;HPM_P2
2022/10/07 00:00:59;;;;;;;4.57;2.30;;;;;;;;;;4997190;28;20503;-81
2022/10/07 00:03:25;;;;;;;4.80;2.38;;;;;;;;;;4981244;28;20084;-81
2022/10/07 00:06:03;;;;;;;5.00;2.00;;;;;;;;;;4997578;28;20041;-81
2022/10/07 00:08:28;;;;;;;5.50;2.58;;;;;;;;;;5031023;28;20407;-81
2022/10/07 00:10:54;;;;;;;4.45;2.15;;;;;;;;;;4996985;28;20113;-81
2022/10/07 00:13:20;;;;;;;3.90;2.10;;;;;;;;;;4997251;28;20463;-81
2022/10/07 00:15:45;;;;;;;7.20;2.50;;;;;;;;;;4973164;28;20030;-81
2022/10/07 00:18:10;;;;;;;4.85;2.50;;;;;;;;;;4996431;28;20037;-81
2022/10/07 00:20:38;;;;;;;4.30;2.50;;;;;;;;;;4997141;28;20372;-81
2022/10/07 00:23:04;;;;;;;4.57;2.20;;;;;;;;;;4981077;28;20034;-81
2022/10/07 00:25:30;;;;;;;4.82;2.15;;;;;;;;;;4994564;28;20291;-81
2022/10/07 00:27:55;;;;;;;6.35;2.53;;;;;;;;;;4996955;28;20551;-81
2022/10/07 00:30:20;;;;;;;4.80;2.22;;;;;;;;;;5013616;28;20551;-81
2022/10/07 00:32:46;;;;;;;5.13;2.20;;;;;;;;;;4980492;28;20411;-80
2022/10/07 00:35:11;;;;;;;3.90;2.08;;;;;;;;;;4996944;28;20368;-81
2022/10/07 00:37:41;;;;;;;3.60;2.00;;;;;;;;;;4981060;28;20116;-81
2022/10/07 00:40:09;;;;;;;4.40;2.05;;;;;;;;;;4997292;28;20026;-81
2022/10/07 00:42:35;;;;;;;6.45;2.10;;;;;;;;;;4980745;28;20033;-80
2022/10/07 00:45:00;;;;;;;6.13;2.47;;;;;;;;;;4980485;28;20075;-81
2022/10/07 00:47:31;;;;;;;3.55;2.38;;;;;;;;;;4996417;28;20084;-81
2022/10/07 00:50:11;;;;;;;5.93;2.22;;;;;;;;;;4997517;28;20030;-81
2022/10/07 00:52:39;;;;;;;3.83;1.58;;;;;;;;;;4996779;28;20037;-81
2022/10/07 00:55:06;;;;;;;4.30;2.15;;;;;;;;;;4980516;28;20476;-80
2022/10/07 00:57:32;;;;;;;4.32;2.00;;;;;;;;;;4982097;28;20033;-81
2022/10/07 00:59:57;;;;;;;4.32;1.90;;;;;;;;;;4984027;28;20036;-81
2022/10/07 01:02:23;;;;;;;4.43;1.83;;;;;;;;;;5000487;28;20391;-81
2022/10/07 01:04:49;;;;;;;5.15;2.42;;;;;;;;;;4963897;28;20040;-80
2022/10/07 01:07:17;;;;;;;5.03;1.95;;;;;;;;;;5000101;28;20030;-81
2022/10/07 01:09:42;;;;;;;3.10;1.38;;;;;;;;;;4984605;28;20037;-81
2022/10/07 01:12:35;;;;;;;5.97;2.53;;;;;;;;;;4984124;28;20038;-81
2022/10/07 01:15:23;;;;;;;4.88;1.77;;;;;;;;;;4994978;28;20071;-81
2022/10/07 01:18:07;;;;;;;4.82;1.92;;;;;;;;;;5024462;28;20032;-81
2022/10/07 01:20:44;;;;;;;4.90;2.25;;;;;;;;;;5034060;28;20435;-81
2022/10/07 01:23:31;;;;;;;4.57;2.10;;;;;;;;;;4984596;28;20030;-81
2022/10/07 01:26:10;;;;;;;4.35;1.88;;;;;;;;;;4965132;28;20097;-81
2022/10/07 01:28:45;;;;;;;4.07;1.90;;;;;;;;;;4996009;28;20480;-81
2022/10/07 01:31:12;;;;;;;4.53;2.20;;;;;;;;;;4980336;28;20381;-81
2022/10/07 01:33:37;;;;;;;4.95;1.88;;;;;;;;;;4996501;28;20049;-80
2022/10/07 01:36:06;;;;;;;4.22;1.63;;;;;;;;;;4996544;28;20054;-81
2022/10/07 01:38:32;;;;;;;3.85;2.08;;;;;;;;;;4980436;28;20092;-81
2022/10/07 01:41:04;;;;;;;3.60;1.63;;;;;;;;;;4963934;28;20026;-81
2022/10/07 01:43:29;;;;;;;4.15;1.58;;;;;;;;;;4979745;28;20053;-81
2022/10/07 01:45:55;;;;;;;4.30;1.92;;;;;;;;;;4996118;28;20488;-81
2022/10/07 01:48:20;;;;;;;3.42;1.58;;;;;;;;;;4996071;28;20052;-83
2022/10/07 01:50:46;;;;;;;4.55;1.88;;;;;;;;;;4996009;28;20125;-81
2022/10/07 01:53:20;;;;;;;2.95;1.20;;;;;;;;;;4979796;28;20034;-81
2022/10/07 01:55:55;;;;;;;3.72;1.52;;;;;;;;;;5016444;28;20032;-81
2022/10/07 01:58:23;;;;;;;5.38;2.00;;;;;;;;;;5032462;28;20037;-81
2022/10/07 02:01:15;;;;;;;3.47;1.58;;;;;;;;;;5033276;28;20079;-82
2022/10/07 02:03:58;;;;;;;4.03;1.55;;;;;;;;;;5028096;28;20052;-81
2022/10/07 02:06:39;;;;;;;4.45;1.65;;;;;;;;;;5032153;28;20029;-81
2022/10/07 02:09:10;;;;;;;3.05;1.33;;;;;;;;;;4962796;28;20036;-81
2022/10/07 02:11:36;;;;;;;3.50;1.63;;;;;;;;;;4979702;28;20037;-81
2022/10/07 02:14:20;;;;;;;4.22;1.50;;;;;;;;;;4979855;28;20040;-81
2022/10/07 02:16:51;;;;;;;3.33;1.52;;;;;;;;;;4998446;28;20029;-81
2022/10/07 02:19:28;;;;;;;3.30;1.60;;;;;;;;;;4999197;28;20029;-81
2022/10/07 02:21:56;;;;;;;5.68;1.67;;;;;;;;;;4999352;28;20116;-80
2022/10/07 02:24:22;;;;;;;4.13;1.60;;;;;;;;;;4988216;28;20029;-81
2022/10/07 02:26:48;;;;;;;4.90;1.42;;;;;;;;;;5006514;28;20029;-81
2022/10/07 02:29:15;;;;;;;4.43;1.55;;;;;;;;;;4999203;28;20042;-81
2022/10/07 02:31:40;;;;;;;2.92;1.20;;;;;;;;;;4966114;28;20037;-80
2022/10/07 02:34:07;;;;;;;2.60;1.30;;;;;;;;;;4998921;28;20021;-80
2022/10/07 02:36:39;;;;;;;4.70;1.40;;;;;;;;;;4982402;28;20044;-81
2022/10/07 02:39:04;;;;;;;4.28;1.45;;;;;;;;;;4998824;28;20108;-80
2022/10/07 02:41:42;;;;;;;4.18;1.73;;;;;;;;;;4997794;28;20053;-81
2022/10/07 02:44:27;;;;;;;3.95;1.83;;;;;;;;;;4999011;28;20121;-81
2022/10/07 02:46:52;;;;;;;4.68;1.58;;;;;;;;;;5014125;28;20037;-81
2022/10/07 02:49:18;;;;;;;4.70;1.40;;;;;;;;;;5014652;28;20391;-81
2022/10/07 02:52:06;;;;;;;4.05;1.30;;;;;;;;;;4979002;28;20049;-81
2022/10/07 02:54:44;;;;;;;3.13;1.20;;;;;;;;;;4981256;28;20026;-81
2022/10/07 02:57:12;;;;;;;3.30;1.25;;;;;;;;;;4966192;28;20432;-81
2022/10/07 02:59:37;;;;;;;3.15;1.65;;;;;;;;;;4998724;28;20041;-81
2022/10/07 03:02:02;;;;;;;3.90;1.60;;;;;;;;;;4991109;28;20033;-81
2022/10/07 03:04:28;;;;;;;3.90;1.52;;;;;;;;;;5001053;28;20037;-81
2022/10/07 03:06:54;;;;;;;2.70;1.10;;;;;;;;;;4997372;28;20045;-80
2022/10/07 03:09:19;;;;;;;2.45;1.23;;;;;;;;;;4998111;28;20597;-81
2022/10/07 03:11:45;;;;;;;3.67;1.27;;;;;;;;;;4997728;28;20414;-81
2022/10/07 03:14:10;;;;;;;3.65;1.65;;;;;;;;;;4997908;28;20065;-80
2022/10/07 03:16:36;;;;;;;3.58;1.20;;;;;;;;;;4963992;28;20124;-81
2022/10/07 03:19:01;;;;;;;5.30;1.35;;;;;;;;;;4997915;28;20032;-81
2022/10/07 03:21:27;;;;;;;2.50;1.20;;;;;;;;;;4997167;28;20037;-81
2022/10/07 03:23:53;;;;;;;2.47;1.10;;;;;;;;;;4991036;28;20543;-81
2022/10/07 03:26:18;;;;;;;3.22;1.17;;;;;;;;;;4984890;28;20037;-80
2022/10/07 03:28:44;;;;;;;2.83;1.40;;;;;;;;;;4997696;28;20052;-81
2022/10/07 03:31:10;;;;;;;2.03;1.02;;;;;;;;;;4997982;28;20041;-80
2022/10/07 03:33:36;;;;;;;4.60;1.55;;;;;;;;;;4981326;28;20021;-81
2022/10/07 03:36:04;;;;;;;4.13;1.50;;;;;;;;;;4997563;28;20434;-81
2022/10/07 03:38:30;;;;;;;4.57;1.60;;;;;;;;;;4997626;28;20052;-81
2022/10/07 03:40:55;;;;;;;3.97;1.52;;;;;;;;;;4997575;28;20151;-81
2022/10/07 03:43:22;;;;;;;2.75;1.33;;;;;;;;;;4997253;28;20518;-81
2022/10/07 03:45:50;;;;;;;3.35;1.58;;;;;;;;;;4977149;28;20026;-81
2022/10/07 03:48:16;;;;;;;3.45;1.20;;;;;;;;;;4961535;28;20109;-81
2022/10/07 03:50:48;;;;;;;2.67;1.40;;;;;;;;;;4978087;28;20113;-80
2022/10/07 03:53:13;;;;;;;2.05;1.08;;;;;;;;;;4977888;28;20492;-81
2022/10/07 03:55:39;;;;;;;3.80;1.15;;;;;;;;;;4988849;28;20108;-81
2022/10/07 03:58:04;;;;;;;3.55;1.38;;;;;;;;;;4981152;28;20024;-81
2022/10/07 04:00:30;;;;;;;4.07;1.13;;;;;;;;;;4997271;28;20046;-81
2022/10/07 04:02:55;;;;;;;3.50;1.33;;;;;;;;;;4997038;28;20060;-80
2022/10/07 04:05:21;;;;;;;2.20;1.23;;;;;;;;;;4997073;28;20064;-80
2022/10/07 04:07:47;;;;;;;3.45;1.38;;;;;;;;;;4996711;28;20034;-81
2022/10/07 04:10:14;;;;;;;4.28;1.30;;;;;;;;;;5013839;28;20178;-81
2022/10/07 04:12:40;;;;;;;4.35;1.50;;;;;;;;;;5016576;28;20059;-80
2022/10/07 04:15:06;;;;;;;4.25;1.40;;;;;;;;;;5011700;28;20037;-80
2022/10/07 04:17:31;;;;;;;4.80;1.17;;;;;;;;;;4996536;28;20030;-80
2022/10/07 04:19:57;;;;;;;3.22;1.00;;;;;;;;;;4997424;28;20036;-80
2022/10/07 04:22:23;;;;;;;2.92;1.20;;;;;;;;;;4980874;28;20087;-81
2022/10/07 04:25:32;;;;;;;3.25;1.00;;;;;;;;;;4996843;28;20034;-81
2022/10/07 04:27:35;;;;;;;2.90;1.20;;;;;;;;;;5002638;28;20102;-81
2022/10/07 04:30:00;;;;;;;2.67;1.13;;;;;;;;;;4997042;28;20484;-80
2022/10/07 04:32:26;;;;;;;4.60;1.40;;;;;;;;;;4981825;28;20071;-81
2022/10/07 04:34:51;;;;;;;4.93;1.38;;;;;;;;;;5000333;28;20037;-81
2022/10/07 04:37:17;;;;;;;2.42;1.20;;;;;;;;;;5000838;28;20049;-81
2022/10/07 04:39:43;;;;;;;4.07;1.00;;;;;;;;;;4983985;28;20112;-81
2022/10/07 04:43:17;;;;;;;3.65;1.15;;;;;;;;;;5016996;28;20399;-80
2022/10/07 04:44:55;;;;;;;3.08;1.20;;;;;;;;;;5018989;28;20399;-80
2022/10/07 04:47:20;;;;;;;2.80;1.13;;;;;;;;;;5005898;28;20026;-80
2022/10/07 04:49:47;;;;;;;3.13;1.00;;;;;;;;;;5000610;28;20057;-80
2022/10/07 04:52:12;;;;;;;5.53;1.25;;;;;;;;;;5000356;28;20498;-80
2022/10/07 04:54:38;;;;;;;4.60;1.20;;;;;;;;;;5000059;28;20042;-80
2022/10/07 04:57:03;;;;;;;3.67;1.00;;;;;;;;;;5000589;28;20091;-81
2022/10/07 04:59:29;;;;;;;2.50;1.20;;;;;;;;;;5000405;28;20036;-80
2022/10/07 05:01:55;;;;;;;3.53;0.80;;;;;;;;;;5000503;28;20038;-80
2022/10/07 05:04:20;;;;;;;2.47;1.00;;;;;;;;;;4983835;28;20060;-80
2022/10/07 05:06:45;;;;;;;3.35;1.13;;;;;;;;;;4999813;28;20049;-81
2022/10/07 05:09:11;;;;;;;2.45;0.80;;;;;;;;;;5000042;28;20519;-81
2022/10/07 05:11:37;;;;;;;1.88;0.73;;;;;;;;;;5000252;28;20460;-82
2022/10/07 05:14:03;;;;;;;2.60;1.30;;;;;;;;;;4999809;28;20038;-79
